Cordova, North Carolina
Current Conditions -  °F | °C
As of 8:35 AM on Sunday 23 Nov 2014 (Local Time) from KRCZ Reporting Station
Light Rain Light Rain  
Wind Chill: 40°   Ceiling: 3800
Heat Index: 42°   Visibility: 5mi
Dew Point: 41°   Wind: 5mph
Humidity: 96%   Direction: 50°NE
Pressure: 30.22"   Gusts: NA
Location:  34.91°N, 79.82°W
Report Text: KRCZ 231335Z AUTO 05004KT 5SM -RA SCT027 BKN038 BKN045 06/05 A3022 RMK AO2 T00580052
Loading
Personal Weather Stations






























Interactive Weather Map New forecast layout! Learn more

10-Day Weather Forecast

Advertisements
Track Severe Weather on mobile